Time;durP1;ratioP1;P1;durP2;ratioP2;P2;SDS_P1;SDS_P2;PMS_P1;PMS_P2;Temp;Humidity;BMP_temperature;BMP_pressure;BME280_temperature;BME280_humidity;BME280_pressure;Samples;Min_cycle;Max_cycle;Signal;HPM_P1;HPM_P2
2023/07/24 00:01:41;;;;;;;;;;;;;;;22.23;50.99;100333.75;4134996;28;19926;-66
2023/07/24 00:03:43;;;;;;;;;;;;;;;22.25;51.26;100334.44;4151015;28;20015;-66
2023/07/24 00:05:45;;;;;;;;;;;;;;;22.25;51.10;100326.41;4151189;28;20009;-66
2023/07/24 00:07:46;;;;;;;;;;;;;;;22.23;51.35;100320.38;4150332;28;19928;-65
2023/07/24 00:09:48;;;;;;;;;;;;;;;22.22;51.21;100307.97;4151261;28;20020;-65
2023/07/24 00:11:49;;;;;;;;;;;;;;;22.21;51.31;100309.78;4150994;28;20495;-66
2023/07/24 00:13:51;;;;;;;;;;;;;;;22.20;51.55;100300.06;4150652;28;20001;-65
2023/07/24 00:15:52;;;;;;;;;;;;;;;22.20;51.37;100310.78;4150804;28;19943;-66
2023/07/24 00:17:54;;;;;;;;;;;;;;;22.21;51.42;100311.63;4132678;28;19921;-66
2023/07/24 00:19:56;;;;;;;;;;;;;;;22.21;51.58;100300.91;4133608;28;19947;-66
2023/07/24 00:21:57;;;;;;;;;;;;;;;22.20;51.33;100293.84;4150693;28;20428;-66
2023/07/24 00:23:59;;;;;;;;;;;;;;;22.20;51.44;100299.19;4150818;28;19921;-66
2023/07/24 00:26:00;;;;;;;;;;;;;;;22.20;51.52;100296.53;4150744;28;19921;-65
2023/07/24 00:28:02;;;;;;;;;;;;;;;22.18;51.33;100297.50;4149570;28;20329;-65
2023/07/24 00:30:04;;;;;;;;;;;;;;;22.19;51.51;100295.69;4150650;28;19957;-66
2023/07/24 00:32:05;;;;;;;;;;;;;;;22.17;51.58;100292.31;4150531;28;19928;-66
2023/07/24 00:34:07;;;;;;;;;;;;;;;22.17;51.45;100287.78;4150532;28;19922;-66
2023/07/24 00:36:08;;;;;;;;;;;;;;;22.18;51.67;100273.41;4150570;28;19968;-66
2023/07/24 00:38:10;;;;;;;;;;;;;;;22.18;51.63;100280.59;4149941;28;20419;-66
2023/07/24 00:40:11;;;;;;;;;;;;;;;22.17;51.46;100268.19;4150560;28;19922;-65
2023/07/24 00:42:13;;;;;;;;;;;;;;;22.16;51.32;100261.16;4150125;28;19922;-66
2023/07/24 00:44:14;;;;;;;;;;;;;;;22.18;51.59;100256.50;4150611;28;20017;-66
2023/07/24 00:46:16;;;;;;;;;;;;;;;22.18;51.39;100257.34;4150566;28;19922;-65
2023/07/24 00:48:18;;;;;;;;;;;;;;;22.17;51.42;100234.22;4149396;28;19932;-66
2023/07/24 00:50:19;;;;;;;;;;;;;;;22.16;51.59;100210.25;4150356;28;19921;-66
2023/07/24 00:52:21;;;;;;;;;;;;;;;22.16;51.64;100200.41;4150067;28;20032;-66
2023/07/24 00:54:23;;;;;;;;;;;;;;;22.16;51.58;100186.16;4149360;28;20389;-66
2023/07/24 00:56:25;;;;;;;;;;;;;;;22.15;51.71;100203.19;4150088;28;20522;-66
2023/07/24 00:58:27;;;;;;;;;;;;;;;22.14;51.51;100205.03;4149511;28;20024;-63
2023/07/24 01:00:29;;;;;;;;;;;;;;;22.15;51.57;100213.91;4150214;28;19921;-66
2023/07/24 01:02:31;;;;;;;;;;;;;;;22.15;51.66;100222.81;4150202;28;19967;-66
2023/07/24 01:04:33;;;;;;;;;;;;;;;22.15;51.52;100233.53;4150293;28;19925;-66
2023/07/24 01:06:34;;;;;;;;;;;;;;;22.16;51.51;100234.34;4149950;28;19928;-65
2023/07/24 01:08:36;;;;;;;;;;;;;;;22.15;51.63;100235.34;4149651;28;20008;-66
2023/07/24 01:10:37;;;;;;;;;;;;;;;22.14;51.59;100239.88;4150266;28;19925;-65
2023/07/24 01:12:45;;;;;;;;;;;;;;;22.15;51.67;100235.34;4149796;28;19921;-65
2023/07/24 01:14:54;;;;;;;;;;;;;;;22.16;51.60;100234.34;4149954;28;19967;-65
2023/07/24 01:16:58;;;;;;;;;;;;;;;22.15;51.75;100238.88;4149982;28;19927;-65
2023/07/24 01:19:00;;;;;;;;;;;;;;;22.14;51.80;100250.59;4149442;28;19928;-65
2023/07/24 01:21:04;;;;;;;;;;;;;;;22.16;51.75;100264.69;4149777;28;19929;-65
2023/07/24 01:23:20;;;;;;;;;;;;;;;22.16;51.77;100256.66;4150050;28;19932;-66
2023/07/24 01:25:32;;;;;;;;;;;;;;;22.16;51.77;100269.19;4149674;28;20364;-65
2023/07/24 01:27:33;;;;;;;;;;;;;;;22.15;51.76;100256.78;4149350;28;20438;-65
2023/07/24 01:29:35;;;;;;;;;;;;;;;22.15;51.22;100243.38;4149759;28;20277;-65
2023/07/24 01:31:36;;;;;;;;;;;;;;;22.15;51.71;100252.28;4149695;28;19921;-66
2023/07/24 01:33:38;;;;;;;;;;;;;;;22.14;51.68;100255.94;4149778;28;19961;-66
2023/07/24 01:35:43;;;;;;;;;;;;;;;22.14;51.42;100255.94;4149694;28;19928;-66
2023/07/24 01:37:46;;;;;;;;;;;;;;;22.15;51.25;100256.78;4149153;28;19921;-66
2023/07/24 01:39:47;;;;;;;;;;;;;;;22.14;51.65;100260.44;4149388;28;20325;-66
2023/07/24 01:41:49;;;;;;;;;;;;;;;22.14;51.66;100253.25;4148369;28;19956;-66
2023/07/24 01:43:51;;;;;;;;;;;;;;;22.13;51.40;100246.22;4149616;28;19971;-66
2023/07/24 01:45:53;;;;;;;;;;;;;;;22.14;51.72;100241.69;4149486;28;20389;-65
2023/07/24 01:47:54;;;;;;;;;;;;;;;22.14;51.91;100244.34;4148711;28;19922;-66
2023/07/24 01:49:56;;;;;;;;;;;;;;;22.12;51.66;100235.66;4149100;28;19921;-66
2023/07/24 01:51:57;;;;;;;;;;;;;;;22.13;51.43;100240.03;4149581;28;20107;-66
2023/07/24 01:53:59;;;;;;;;;;;;;;;22.13;51.72;100231.97;4149263;28;19968;-66
2023/07/24 01:56:00;;;;;;;;;;;;;;;22.12;51.74;100219.56;4149161;28;19948;-66
2023/07/24 01:58:02;;;;;;;;;;;;;;;22.12;51.73;100215.06;4131498;28;20012;-66
2023/07/24 02:00:04;;;;;;;;;;;;;;;22.12;51.67;100216.91;4149009;28;20388;-66
2023/07/24 02:02:05;;;;;;;;;;;;;;;22.11;51.55;100208.00;4149115;28;19921;-66
2023/07/24 02:04:07;;;;;;;;;;;;;;;22.09;51.67;100212.66;4149001;28;20305;-65
2023/07/24 02:06:08;;;;;;;;;;;;;;;22.11;51.28;100217.88;4149269;28;19957;-66
2023/07/24 02:08:10;;;;;;;;;;;;;;;22.10;51.41;100222.41;4148295;28;19922;-64
2023/07/24 02:10:11;;;;;;;;;;;;;;;22.12;51.53;100222.25;4148944;28;19921;-66
2023/07/24 02:12:13;;;;;;;;;;;;;;;22.10;51.26;100222.41;4149116;28;19921;-65
2023/07/24 02:14:16;;;;;;;;;;;;;;;22.10;51.67;100232.25;4149198;28;19921;-66
2023/07/24 02:16:17;;;;;;;;;;;;;;;22.10;51.29;100226.91;4149394;28;20000;-66
2023/07/24 02:18:19;;;;;;;;;;;;;;;22.08;51.08;100216.34;4148233;28;19991;-66
2023/07/24 02:20:20;;;;;;;;;;;;;;;22.08;51.33;100210.97;4148983;28;20300;-66
2023/07/24 02:22:22;;;;;;;;;;;;;;;22.07;51.52;100198.56;4148990;28;19933;-66
2023/07/24 02:24:23;;;;;;;;;;;;;;;22.07;51.89;100222.66;4148497;28;20348;-66
2023/07/24 02:26:25;;;;;;;;;;;;;;;22.07;51.82;100233.38;4131473;28;20393;-66
2023/07/24 02:28:27;;;;;;;;;;;;;;;22.07;51.82;100224.50;4147932;28;19929;-66
2023/07/24 02:30:28;;;;;;;;;;;;;;;22.07;51.73;100219.16;4148864;28;19925;-66
2023/07/24 02:32:30;;;;;;;;;;;;;;;22.05;51.90;100221.97;4148715;28;20496;-66
2023/07/24 02:34:31;;;;;;;;;;;;;;;22.05;51.93;100227.31;4149095;28;20365;-66
2023/07/24 02:36:33;;;;;;;;;;;;;;;22.05;51.84;100226.47;4148702;28;19960;-65
2023/07/24 02:38:35;;;;;;;;;;;;;;;22.04;51.85;100230.13;4147861;28;20028;-65
2023/07/24 02:40:36;;;;;;;;;;;;;;;22.04;52.11;100222.09;4148476;28;19925;-65
2023/07/24 02:42:38;;;;;;;;;;;;;;;22.04;51.90;100216.75;4148769;28;19921;-65
2023/07/24 02:44:39;;;;;;;;;;;;;;;22.04;51.97;100211.41;4148768;28;19928;-66
2023/07/24 02:46:41;;;;;;;;;;;;;;;22.02;51.93;100207.03;4148894;28;19963;-65
2023/07/24 02:48:42;;;;;;;;;;;;;;;22.02;51.97;100206.19;4142689;28;20400;-66
2023/07/24 02:50:44;;;;;;;;;;;;;;;22.02;51.93;100212.38;4132436;28;19922;-65
2023/07/24 02:52:45;;;;;;;;;;;;;;;22.01;51.79;100210.69;4131903;28;19960;-65
2023/07/24 02:54:47;;;;;;;;;;;;;;;22.02;52.07;100209.69;4132288;28;20063;-64
2023/07/24 02:56:48;;;;;;;;;;;;;;;22.02;51.95;100198.16;4115146;28;20401;-65
2023/07/24 02:58:50;;;;;;;;;;;;;;;22.01;51.75;100202.66;4131530;28;19964;-66
2023/07/24 03:00:51;;;;;;;;;;;;;;;22.01;52.05;100204.50;4132307;28;19921;-65
2023/07/24 03:02:53;;;;;;;;;;;;;;;22.00;52.28;100217.03;4142086;28;19921;-65
2023/07/24 03:04:54;;;;;;;;;;;;;;;21.99;52.14;100231.41;4148277;28;19927;-65
2023/07/24 03:06:56;;;;;;;;;;;;;;;22.01;51.91;100233.94;4148195;28;20024;-64
2023/07/24 03:08:58;;;;;;;;;;;;;;;22.02;52.00;100232.97;4147459;28;19929;-66
2023/07/24 03:10:59;;;;;;;;;;;;;;;22.00;52.07;100230.41;4148325;28;19940;-65
2023/07/24 03:13:01;;;;;;;;;;;;;;;22.00;51.86;100243.81;4148411;28;19925;-65
2023/07/24 03:15:03;;;;;;;;;;;;;;;22.00;52.13;100238.44;4148379;28;19922;-66
2023/07/24 03:17:04;;;;;;;;;;;;;;;21.99;51.80;100217.16;4130124;28;20016;-66
2023/07/24 03:19:06;;;;;;;;;;;;;;;21.98;52.01;100210.97;4147557;28;19953;-66
2023/07/24 03:21:07;;;;;;;;;;;;;;;21.97;52.02;100213.78;4148265;28;19921;-66
2023/07/24 03:23:09;;;;;;;;;;;;;;;21.97;51.76;100206.63;4147921;28;19922;-66
2023/07/24 03:25:10;;;;;;;;;;;;;;;21.97;51.87;100211.09;4148263;28;19971;-66
2023/07/24 03:27:12;;;;;;;;;;;;;;;21.98;51.52;100208.31;4148128;28;20032;-66
2023/07/24 03:29:14;;;;;;;;;;;;;;;21.97;51.59;100206.63;4147455;28;20380;-66
2023/07/24 03:31:15;;;;;;;;;;;;;;;21.96;51.65;100202.25;4148196;28;19928;-66
2023/07/24 03:33:17;;;;;;;;;;;;;;;21.94;52.04;100209.56;4148273;28;19921;-66
2023/07/24 03:35:18;;;;;;;;;;;;;;;21.96;52.11;100209.44;4148097;28;19979;-65
2023/07/24 03:37:20;;;;;;;;;;;;;;;21.95;52.33;100213.09;4147771;28;19921;-66
2023/07/24 03:39:21;;;;;;;;;;;;;;;21.95;52.14;100224.63;4147210;28;19928;-66
2023/07/24 03:41:23;;;;;;;;;;;;;;;21.94;52.05;100216.75;4148165;28;20389;-66
2023/07/24 03:43:24;;;;;;;;;;;;;;;21.94;52.62;100196.16;4148108;28;19968;-66
2023/07/24 03:45:26;;;;;;;;;;;;;;;21.93;51.88;100191.78;4147818;28;19921;-66
2023/07/24 03:47:28;;;;;;;;;;;;;;;21.93;52.70;100207.03;4147879;28;19943;-66
2023/07/24 03:49:29;;;;;;;;;;;;;;;21.93;52.45;100215.06;4135877;28;19925;-66
2023/07/24 03:51:31;;;;;;;;;;;;;;;21.92;52.20;100194.63;4131472;28;19960;-66
2023/07/24 03:53:32;;;;;;;;;;;;;;;21.92;52.31;100183.91;4131987;28;19921;-66
2023/07/24 03:55:34;;;;;;;;;;;;;;;21.91;52.89;100177.72;4131805;28;19929;-66
2023/07/24 03:57:35;;;;;;;;;;;;;;;21.91;52.40;100167.03;4131353;28;19928;-67
2023/07/24 03:59:37;;;;;;;;;;;;;;;21.90;52.39;100168.00;4131363;28;20333;-66
2023/07/24 04:01:39;;;;;;;;;;;;;;;21.91;52.82;100179.53;4131710;28;20447;-66
2023/07/24 04:03:40;;;;;;;;;;;;;;;21.90;52.43;100189.41;4131769;28;19943;-66
2023/07/24 04:05:42;;;;;;;;;;;;;;;21.90;52.64;100188.59;4131166;28;19925;-66
2023/07/24 04:07:43;;;;;;;;;;;;;;;21.91;52.45;100198.28;4130952;28;20025;-66
2023/07/24 04:09:46;;;;;;;;;;;;;;;21.90;52.97;100183.22;4131382;28;20359;-66
2023/07/24 04:11:47;;;;;;;;;;;;;;;21.89;52.96;100184.22;4131838;28;19956;-66
2023/07/24 04:13:49;;;;;;;;;;;;;;;21.88;53.03;100178.00;4131612;28;19972;-66
2023/07/24 04:15:50;;;;;;;;;;;;;;;21.88;53.25;100174.50;4114354;28;19922;-66
2023/07/24 04:17:52;;;;;;;;;;;;;;;21.88;53.03;100185.19;4130899;28;19922;-66
2023/07/24 04:19:53;;;;;;;;;;;;;;;21.88;53.11;100187.88;4131027;28;19921;-66
2023/07/24 04:21:55;;;;;;;;;;;;;;;21.88;52.83;100185.19;4131628;28;19929;-65
2023/07/24 04:23:56;;;;;;;;;;;;;;;21.88;52.64;100185.19;4131662;28;19922;-66
2023/07/24 04:25:59;;;;;;;;;;;;;;;21.88;52.35;100186.03;4131602;28;19933;-65
2023/07/24 04:28:00;;;;;;;;;;;;;;;21.89;52.61;100178.84;4132303;28;20341;-66
2023/07/24 04:30:02;;;;;;;;;;;;;;;21.88;52.71;100164.63;4134205;28;20012;-66
2023/07/24 04:32:03;;;;;;;;;;;;;;;21.86;52.98;100175.47;4134549;28;20384;-65
2023/07/24 04:34:05;;;;;;;;;;;;;;;21.85;53.27;100171.09;4134001;28;19937;-66
2023/07/24 04:36:06;;;;;;;;;;;;;;;21.84;52.62;100169.41;4134339;28;20074;-66
2023/07/24 04:38:08;;;;;;;;;;;;;;;21.86;52.98;100158.56;4133843;28;19928;-65
2023/07/24 04:40:10;;;;;;;;;;;;;;;21.84;53.15;100157.88;4134155;28;19944;-66
2023/07/24 04:42:11;;;;;;;;;;;;;;;21.84;52.70;100155.19;4134434;28;19996;-66
2023/07/24 04:44:13;;;;;;;;;;;;;;;21.84;52.68;100160.53;4134352;28;20381;-66
2023/07/24 04:46:14;;;;;;;;;;;;;;;21.84;52.88;100171.25;4134393;28;19922;-66
2023/07/24 04:48:16;;;;;;;;;;;;;;;21.83;52.71;100173.06;4134746;28;19921;-65
2023/07/24 04:50:17;;;;;;;;;;;;;;;21.83;52.97;100169.56;4150151;28;20371;-65
2023/07/24 04:52:19;;;;;;;;;;;;;;;21.81;52.42;100161.66;4150390;28;19975;-65
2023/07/24 04:54:24;;;;;;;;;;;;;;;21.81;53.33;100160.81;4150415;28;19928;-66
2023/07/24 04:56:25;;;;;;;;;;;;;;;21.80;53.14;100168.00;4132825;28;19922;-66
2023/07/24 04:58:27;;;;;;;;;;;;;;;21.82;53.11;100167.84;4149685;28;19979;-66
2023/07/24 05:00:28;;;;;;;;;;;;;;;21.81;53.17;100169.69;4150152;28;20335;-66
2023/07/24 05:02:30;;;;;;;;;;;;;;;21.82;53.54;100175.88;4150218;28;19925;-66
2023/07/24 05:04:31;;;;;;;;;;;;;;;21.81;53.28;100177.72;4149999;28;19922;-66
2023/07/24 05:06:35;;;;;;;;;;;;;;;21.80;53.55;100183.22;4150359;28;20020;-65
2023/07/24 05:08:36;;;;;;;;;;;;;;;21.80;53.07;100175.19;4149444;28;19921;-66
2023/07/24 05:10:38;;;;;;;;;;;;;;;21.80;53.57;100177.84;4150043;28;20060;-64
2023/07/24 05:12:42;;;;;;;;;;;;;;;21.79;53.64;100179.69;4150194;28;20301;-65
2023/07/24 05:14:44;;;;;;;;;;;;;;;21.79;53.86;100182.38;4150139;28;19925;-65
2023/07/24 05:16:45;;;;;;;;;;;;;;;21.79;53.54;100179.69;4150095;28;20005;-66
2023/07/24 05:18:47;;;;;;;;;;;;;;;21.79;53.66;100184.22;4148937;28;19952;-65
2023/07/24 05:20:51;;;;;;;;;;;;;;;21.79;53.50;100177.03;4132693;28;19953;-65
2023/07/24 05:22:52;;;;;;;;;;;;;;;21.80;53.43;100178.72;4149941;28;19925;-65
2023/07/24 05:24:54;;;;;;;;;;;;;;;21.80;53.68;100172.50;4149847;28;19921;-66
2023/07/24 05:26:56;;;;;;;;;;;;;;;21.79;53.60;100174.34;4149993;28;20389;-64
2023/07/24 05:28:57;;;;;;;;;;;;;;;21.80;53.42;100169.81;4131741;28;19921;-65
2023/07/24 05:31:02;;;;;;;;;;;;;;;21.79;53.81;100166.31;4149785;28;19921;-66
2023/07/24 05:33:04;;;;;;;;;;;;;;;21.79;53.73;100171.66;4149257;28;19922;-66
2023/07/24 05:35:06;;;;;;;;;;;;;;;21.79;53.73;100152.09;4149827;28;19939;-66
2023/07/24 05:37:07;;;;;;;;;;;;;;;21.80;53.55;100161.78;4149734;28;19967;-64
2023/07/24 05:39:09;;;;;;;;;;;;;;;21.80;53.58;100165.34;4147899;28;19921;-66
2023/07/24 05:41:11;;;;;;;;;;;;;;;21.80;53.61;100170.69;4132320;28;19952;-66
2023/07/24 05:43:12;;;;;;;;;;;;;;;21.81;53.33;100166.16;4149556;28;19952;-66
2023/07/24 05:45:16;;;;;;;;;;;;;;;21.82;53.69;100170.53;4149551;28;19921;-66
2023/07/24 05:47:18;;;;;;;;;;;;;;;21.83;53.47;100170.38;4149268;28;19921;-68
2023/07/24 05:49:19;;;;;;;;;;;;;;;21.82;53.32;100171.41;4138511;28;19921;-65
2023/07/24 05:51:21;;;;;;;;;;;;;;;21.83;53.26;100175.75;4133289;28;19921;-65
2023/07/24 05:53:22;;;;;;;;;;;;;;;21.83;53.06;100165.03;4133242;28;20304;-65
2023/07/24 05:55:24;;;;;;;;;;;;;;;21.82;53.48;100166.03;4133618;28;19922;-65
2023/07/24 05:57:25;;;;;;;;;;;;;;;21.82;53.45;100168.72;4133159;28;19964;-65
2023/07/24 05:59:27;;;;;;;;;;;;;;;21.83;53.12;100165.03;4132396;28;20368;-65
2023/07/24 06:01:28;;;;;;;;;;;;;;;21.82;53.08;100158.00;4132785;28;20404;-65
2023/07/24 06:03:30;;;;;;;;;;;;;;;21.82;53.16;100154.47;4147986;28;19925;-65
2023/07/24 06:05:32;;;;;;;;;;;;;;;21.83;53.33;100169.56;4149184;28;19965;-65
2023/07/24 06:07:33;;;;;;;;;;;;;;;21.84;53.08;100160.53;4149230;28;19922;-65
2023/07/24 06:09:35;;;;;;;;;;;;;;;21.82;53.34;100168.72;4148257;28;19928;-65
2023/07/24 06:11:36;;;;;;;;;;;;;;;21.84;53.30;100177.44;4148534;28;20425;-64
2023/07/24 06:13:38;;;;;;;;;;;;;;;21.82;52.95;100173.22;4149131;28;19921;-65
2023/07/24 06:15:39;;;;;;;;;;;;;;;21.82;52.78;100178.56;4148777;28;20012;-65
2023/07/24 06:17:41;;;;;;;;;;;;;;;21.82;53.20;100181.25;4149032;28;20309;-65
2023/07/24 06:19:42;;;;;;;;;;;;;;;21.81;53.33;100184.91;4148055;28;19921;-64
2023/07/24 06:21:44;;;;;;;;;;;;;;;21.81;53.03;100180.41;4149146;28;20403;-64
2023/07/24 06:23:45;;;;;;;;;;;;;;;21.81;52.91;100182.22;4148813;28;19928;-64
2023/07/24 06:25:47;;;;;;;;;;;;;;;21.81;52.72;100193.78;4149203;28;20015;-65
2023/07/24 06:27:48;;;;;;;;;;;;;;;21.82;52.81;100198.16;4148899;28;20416;-64
2023/07/24 06:29:50;;;;;;;;;;;;;;;21.82;52.53;100197.31;4147682;28;19932;-64
2023/07/24 06:31:56;;;;;;;;;;;;;;;21.84;53.04;100198.00;4132192;28;20005;-65
2023/07/24 06:33:57;;;;;;;;;;;;;;;21.84;52.63;100208.72;4148884;28;19921;-65
2023/07/24 06:35:59;;;;;;;;;;;;;;;21.83;52.82;100202.50;4148816;28;19943;-64
2023/07/24 06:38:00;;;;;;;;;;;;;;;21.84;52.61;100204.19;4148761;28;20004;-65
2023/07/24 06:40:02;;;;;;;;;;;;;;;21.85;52.66;100191.69;4148107;28;19928;-65
2023/07/24 06:42:04;;;;;;;;;;;;;;;21.84;52.30;100185.47;4131430;28;20406;-65
2023/07/24 06:44:05;;;;;;;;;;;;;;;21.84;52.80;100190.81;4148547;28;19928;-65
2023/07/24 06:46:07;;;;;;;;;;;;;;;21.82;52.65;100176.75;4148205;28;20344;-65
2023/07/24 06:48:09;;;;;;;;;;;;;;;21.83;52.71;100173.06;4147831;28;19928;-65
2023/07/24 06:50:10;;;;;;;;;;;;;;;21.84;52.50;100182.78;4132019;28;19972;-65
2023/07/24 06:52:12;;;;;;;;;;;;;;;21.84;52.20;100180.09;4132157;28;19922;-65
2023/07/24 06:54:13;;;;;;;;;;;;;;;21.84;52.44;100187.31;4132228;28;20440;-65
2023/07/24 06:56:15;;;;;;;;;;;;;;;21.83;52.23;100188.28;4132418;28;20403;-65
2023/07/24 06:58:16;;;;;;;;;;;;;;;21.83;52.25;100183.78;4131745;28;19960;-64
2023/07/24 07:00:18;;;;;;;;;;;;;;;21.83;52.36;100193.66;4131462;28;19929;-65
2023/07/24 07:02:19;;;;;;;;;;;;;;;21.82;52.23;100190.13;4137662;28;19925;-65
2023/07/24 07:04:21;;;;;;;;;;;;;;;21.83;51.42;100190.97;4148433;28;20397;-64
2023/07/24 07:06:22;;;;;;;;;;;;;;;21.84;51.75;100185.47;4148305;28;20377;-64
2023/07/24 07:08:27;;;;;;;;;;;;;;;21.83;51.80;100180.25;4147529;28;19922;-66
2023/07/24 07:10:30;;;;;;;;;;;;;;;21.84;51.80;100184.63;4148060;28;19979;-65
2023/07/24 07:12:32;;;;;;;;;;;;;;;21.82;51.59;100184.78;4131113;28;20367;-65
2023/07/24 07:14:33;;;;;;;;;;;;;;;21.83;51.68;100193.66;4147968;28;19964;-65
2023/07/24 07:16:35;;;;;;;;;;;;;;;21.85;51.88;100187.16;4148504;28;19929;-65
2023/07/24 07:18:36;;;;;;;;;;;;;;;21.88;51.64;100193.22;4147699;28;20313;-65
2023/07/24 07:20:38;;;;;;;;;;;;;;;21.89;51.26;100184.22;4148089;28;20337;-65
2023/07/24 07:22:40;;;;;;;;;;;;;;;21.89;51.36;100179.69;4148558;28;19967;-64
2023/07/24 07:24:43;;;;;;;;;;;;;;;21.91;51.21;100190.25;4148527;28;19925;-65
2023/07/24 07:26:45;;;;;;;;;;;;;;;21.94;51.20;100187.31;4148479;28;19928;-64
2023/07/24 07:28:47;;;;;;;;;;;;;;;21.96;50.99;100180.81;4147320;28;20475;-64
2023/07/24 07:30:49;;;;;;;;;;;;;;;21.97;51.18;100181.66;4130228;28;19984;-52
2023/07/24 07:32:50;;;;;;;;;;;;;;;21.99;50.90;100185.03;4147988;28;20004;-52
2023/07/24 07:34:52;;;;;;;;;;;;;;;22.01;50.86;100191.09;4147756;28;19976;-53
2023/07/24 07:36:54;;;;;;;;;;;;;;;22.02;50.72;100185.59;4147809;28;19976;-53
2023/07/24 07:38:55;;;;;;;;;;;;;;;22.05;50.52;100189.81;4147329;28;20004;-54
2023/07/24 07:40:57;;;;;;;;;;;;;;;22.06;50.63;100190.69;4147714;28;19921;-51
2023/07/24 07:42:58;;;;;;;;;;;;;;;22.05;50.76;100195.19;4147475;28;19964;-53
2023/07/24 07:45:00;;;;;;;;;;;;;;;22.07;50.28;100190.53;4147925;28;19922;-53
2023/07/24 07:47:01;;;;;;;;;;;;;;;22.09;50.66;100193.06;4147656;28;19932;-53
2023/07/24 07:49:03;;;;;;;;;;;;;;;22.10;50.21;100197.44;4139153;28;19922;-54
2023/07/24 07:51:04;;;;;;;;;;;;;;;22.11;50.42;100196.44;4131425;28;19922;-53
2023/07/24 07:53:06;;;;;;;;;;;;;;;22.11;50.26;100199.97;4131424;28;19965;-53
2023/07/24 07:55:08;;;;;;;;;;;;;;;22.12;50.48;100198.16;4131739;28;19933;-54
2023/07/24 07:57:09;;;;;;;;;;;;;;;22.14;50.05;100206.88;4131095;28;20034;-53
2023/07/24 07:59:11;;;;;;;;;;;;;;;22.11;49.99;100207.16;4130447;28;20008;-55
2023/07/24 08:01:13;;;;;;;;;;;;;;;22.09;50.36;100209.13;4131257;28;20298;-54
2023/07/24 08:03:14;;;;;;;;;;;;;;;22.09;50.21;100214.47;4145938;28;19960;-53
2023/07/24 08:05:16;;;;;;;;;;;;;;;22.09;50.04;100222.53;4150801;28;20439;-54
2023/07/24 08:07:22;;;;;;;;;;;;;;;22.08;50.03;100210.13;4150909;28;19949;-53
2023/07/24 08:09:24;;;;;;;;;;;;;;;22.06;50.00;100212.13;4150190;28;20373;-54
2023/07/24 08:11:25;;;;;;;;;;;;;;;22.05;50.18;100216.59;4150617;28;19921;-53
2023/07/24 08:13:27;;;;;;;;;;;;;;;22.06;50.18;100209.44;4150806;28;19922;-54
2023/07/24 08:15:33;;;;;;;;;;;;;;;22.06;50.11;100214.78;4150929;28;19925;-54
2023/07/24 08:17:34;;;;;;;;;;;;;;;22.05;50.20;100221.13;4150690;28;19921;-54
2023/07/24 08:19:36;;;;;;;;;;;;;;;22.02;50.04;100216.91;4149902;28;20384;-53
2023/07/24 08:21:38;;;;;;;;;;;;;;;22.04;50.13;100225.63;4150712;28;19921;-52
2023/07/24 08:23:40;;;;;;;;;;;;;;;22.04;50.18;100219.44;4150637;28;19921;-54
2023/07/24 08:25:52;;;;;;;;;;;;;;;22.05;49.87;100221.97;4150833;28;19925;-55
2023/07/24 08:27:53;;;;;;;;;;;;;;;22.06;50.04;100207.59;4150431;28;20316;-53
2023/07/24 08:30:06;;;;;;;;;;;;;;;22.05;50.10;100213.94;4149621;28;19921;-53
2023/07/24 08:32:08;;;;;;;;;;;;;;;22.07;49.65;100211.97;4133063;28;19984;-52
2023/07/24 08:34:10;;;;;;;;;;;;;;;22.11;49.47;100213.34;4150358;28;19928;-53
2023/07/24 08:36:12;;;;;;;;;;;;;;;22.12;49.57;100204.34;4150345;28;20396;-53
2023/07/24 08:38:14;;;;;;;;;;;;;;;22.11;49.77;100207.16;4150388;28;19921;-52
2023/07/24 08:40:15;;;;;;;;;;;;;;;22.08;49.59;100216.34;4132317;28;19921;-53
2023/07/24 08:42:17;;;;;;;;;;;;;;;22.11;49.53;100208.00;4150152;28;19921;-54
2023/07/24 08:44:20;;;;;;;;;;;;;;;22.11;49.56;100226.75;4150546;28;20283;-53
2023/07/24 08:46:22;;;;;;;;;;;;;;;22.12;49.35;100222.25;4150195;28;20008;-52
2023/07/24 08:48:23;;;;;;;;;;;;;;;22.12;49.40;100224.94;4147762;28;20004;-54
2023/07/24 08:50:26;;;;;;;;;;;;;;;22.09;49.38;100212.66;4133314;28;19921;-53
2023/07/24 08:52:27;;;;;;;;;;;;;;;22.08;49.22;100219.00;4133946;28;20424;-52
2023/07/24 08:54:38;;;;;;;;;;;;;;;22.10;49.11;100221.53;4133715;28;19953;-53
2023/07/24 08:56:40;;;;;;;;;;;;;;;22.09;49.46;100220.72;4133500;28;19976;-53
2023/07/24 08:58:42;;;;;;;;;;;;;;;22.12;48.91;100222.25;4133305;28;20013;-54
2023/07/24 09:00:43;;;;;;;;;;;;;;;22.13;48.99;100222.09;4133702;28;20381;-53
2023/07/24 09:02:45;;;;;;;;;;;;;;;22.13;48.79;100219.44;4142381;28;19979;-54
2023/07/24 09:04:47;;;;;;;;;;;;;;;22.15;49.20;100222.81;4149667;28;19925;-54
2023/07/24 09:06:49;;;;;;;;;;;;;;;22.16;48.76;100218.28;4150080;28;19921;-53
2023/07/24 09:08:53;;;;;;;;;;;;;;;22.17;48.58;100223.50;4149368;28;19928;-54
2023/07/24 09:10:55;;;;;;;;;;;;;;;22.18;48.96;100225.19;4149497;28;20035;-52
2023/07/24 09:12:58;;;;;;;;;;;;;;;22.18;48.62;100227.88;4132634;28;20012;-54
2023/07/24 09:15:06;;;;;;;;;;;;;;;22.18;48.68;100211.78;4148719;28;19956;-53
2023/07/24 09:17:09;;;;;;;;;;;;;;;22.18;48.75;100216.31;4149623;28;20015;-53
2023/07/24 09:19:18;;;;;;;;;;;;;;;22.22;48.70;100219.56;4131512;28;19928;-52
2023/07/24 09:21:28;;;;;;;;;;;;;;;22.22;48.34;100217.72;4149637;28;19921;-54
2023/07/24 09:23:30;;;;;;;;;;;;;;;22.22;48.42;100231.09;4149786;28;20304;-53
2023/07/24 09:25:32;;;;;;;;;;;;;;;22.25;48.20;100221.94;4131940;28;19931;-53
2023/07/24 09:27:34;;;;;;;;;;;;;;;22.26;48.32;100223.63;4149735;28;20304;-54
2023/07/24 09:29:36;;;;;;;;;;;;;;;22.30;48.40;100217.84;4148895;28;19921;-54
2023/07/24 09:31:38;;;;;;;;;;;;;;;22.28;48.02;100216.31;4149481;28;19928;-53
2023/07/24 09:33:40;;;;;;;;;;;;;;;22.28;48.18;100216.31;4149511;28;19975;-53
2023/07/24 09:35:42;;;;;;;;;;;;;;;22.26;47.50;100224.50;4149767;28;19975;-52
2023/07/24 09:37:44;;;;;;;;;;;;;;;22.24;47.70;100223.78;4132174;28;20278;-53
2023/07/24 09:39:46;;;;;;;;;;;;;;;22.22;48.13;100223.06;4147315;28;19921;-53
2023/07/24 09:41:50;;;;;;;;;;;;;;;22.22;48.36;100216.88;4149355;28;19929;-52
2023/07/24 09:43:58;;;;;;;;;;;;;;;22.21;48.23;100223.22;4149368;28;20407;-53
2023/07/24 09:46:00;;;;;;;;;;;;;;;22.20;48.18;100229.56;4149281;28;20016;-54
2023/07/24 09:48:01;;;;;;;;;;;;;;;22.19;48.07;100226.06;4131970;28;20328;-53
2023/07/24 09:50:10;;;;;;;;;;;;;;;22.18;48.33;100225.19;4132439;28;20313;-53
2023/07/24 09:52:12;;;;;;;;;;;;;;;22.20;48.12;100226.88;4132986;28;20332;-55
2023/07/24 09:54:22;;;;;;;;;;;;;;;22.24;47.97;100220.28;4132691;28;19945;-54
2023/07/24 09:56:23;;;;;;;;;;;;;;;22.24;48.34;100222.94;4133120;28;20305;-54
2023/07/24 09:58:44;;;;;;;;;;;;;;;22.26;48.02;100227.19;4132471;28;19921;-56
2023/07/24 10:00:45;;;;;;;;;;;;;;;22.26;48.14;100224.50;4132356;28;20309;-53
2023/07/24 10:02:48;;;;;;;;;;;;;;;22.29;48.00;100237.59;4141721;28;19929;-54
2023/07/24 10:04:50;;;;;;;;;;;;;;;22.31;47.86;100229.44;4149214;28;19925;-54
2023/07/24 10:06:52;;;;;;;;;;;;;;;22.31;47.78;100227.59;4149014;28;20447;-52
2023/07/24 10:08:54;;;;;;;;;;;;;;;22.33;47.65;100230.97;4147937;28;20025;-55
2023/07/24 10:10:56;;;;;;;;;;;;;;;22.32;47.43;100236.44;4148705;28;19921;-52
2023/07/24 10:12:58;;;;;;;;;;;;;;;22.35;47.28;100236.19;4148857;28;19921;-53
2023/07/24 10:15:00;;;;;;;;;;;;;;;22.34;47.33;100237.16;4148856;28;19952;-54
2023/07/24 10:17:02;;;;;;;;;;;;;;;22.33;47.42;100233.66;4149010;28;19943;-52
2023/07/24 10:19:12;;;;;;;;;;;;;;;22.31;46.97;100229.44;4148325;28;19968;-54
2023/07/24 10:21:14;;;;;;;;;;;;;;;22.31;47.28;100232.94;4148776;28;19921;-55
2023/07/24 10:23:16;;;;;;;;;;;;;;;22.30;47.17;100233.09;4148521;28;19921;-52
2023/07/24 10:25:18;;;;;;;;;;;;;;;22.29;47.41;100242.94;4148453;28;20691;-52
2023/07/24 10:27:23;;;;;;;;;;;;;;;22.28;47.58;100230.53;4148611;28;19928;-54